sensor_id;sensor_type;location;lat;lon;timestamp;pressure;altitude;pressure_sealevel;temperature;humidity
41383;BME280;27971;53.902;9.118;2022-12-18T00:05:05;102904.0;;;23.55;22.14
41383;BME280;27971;53.902;9.118;2022-12-18T00:07:07;102900.0;;;23.4;22.11
41383;BME280;27971;53.902;9.118;2022-12-18T00:09:11;102900.0;;;23.63;21.79
41383;BME280;27971;53.902;9.118;2022-12-18T00:11:14;102905.0;;;23.77;21.53
41383;BME280;27971;53.902;9.118;2022-12-18T00:13:16;102904.0;;;24.65;21.52
41383;BME280;27971;53.902;9.118;2022-12-18T00:15:18;102904.0;;;24.6;21.68
41383;BME280;27971;53.902;9.118;2022-12-18T00:17:21;102901.0;;;24.37;21.95
41383;BME280;27971;53.902;9.118;2022-12-18T00:19:23;102895.0;;;24.5;21.89
41383;BME280;27971;53.902;9.118;2022-12-18T00:21:27;102886.99999999999;;;24.45;21.98
41383;BME280;27971;53.902;9.118;2022-12-18T00:23:28;102882.0;;;24.48;22.0
41383;BME280;27971;53.902;9.118;2022-12-18T00:25:33;102882.0;;;24.24;22.14
41383;BME280;27971;53.902;9.118;2022-12-18T00:27:35;102883.99999999999;;;24.31;22.19
41383;BME280;27971;53.902;9.118;2022-12-18T00:29:37;102888.00000000001;;;24.03;22.3
41383;BME280;27971;53.902;9.118;2022-12-18T00:31:41;102890.00000000001;;;24.18;22.23
41383;BME280;27971;53.902;9.118;2022-12-18T00:33:43;102886.99999999999;;;24.36;22.11
41383;BME280;27971;53.902;9.118;2022-12-18T00:35:45;102883.99999999999;;;24.16;22.28
41383;BME280;27971;53.902;9.118;2022-12-18T00:37:48;102883.99999999999;;;23.95;22.39
41383;BME280;27971;53.902;9.118;2022-12-18T00:39:51;102883.0;;;23.83;22.48
41383;BME280;27971;53.902;9.118;2022-12-18T00:41:53;102886.99999999999;;;23.77;22.5
41383;BME280;27971;53.902;9.118;2022-12-18T00:43:56;102886.99999999999;;;21.1;22.4
41383;BME280;27971;53.902;9.118;2022-12-18T00:45:59;102879.0;;;20.41;21.52
41383;BME280;27971;53.902;9.118;2022-12-18T00:48:02;102873.0;;;20.88;20.73
41383;BME280;27971;53.902;9.118;2022-12-18T00:50:06;102876.0;;;21.33;20.09
41383;BME280;27971;53.902;9.118;2022-12-18T00:52:08;102879.0;;;21.53;19.78
41383;BME280;27971;53.902;9.118;2022-12-18T00:54:11;102882.0;;;21.61;19.56
41383;BME280;27971;53.902;9.118;2022-12-18T00:56:14;102881.0;;;21.6;19.43
41383;BME280;27971;53.902;9.118;2022-12-18T00:58:17;102883.0;;;21.76;19.24
41383;BME280;27971;53.902;9.118;2022-12-18T01:00:19;102888.00000000001;;;23.49;19.51
41383;BME280;27971;53.902;9.118;2022-12-18T01:02:21;102893.0;;;25.07;20.02
41383;BME280;27971;53.902;9.118;2022-12-18T01:04:24;102897.0;;;24.52;20.76
41383;BME280;27971;53.902;9.118;2022-12-18T01:06:26;102906.0;;;24.03;21.31
41383;BME280;27971;53.902;9.118;2022-12-18T01:08:29;102911.99999999999;;;23.49;21.88
41383;BME280;27971;53.902;9.118;2022-12-18T01:10:32;102911.99999999999;;;23.7;21.99
41383;BME280;27971;53.902;9.118;2022-12-18T01:12:35;102914.00000000001;;;23.61;22.17
41383;BME280;27971;53.902;9.118;2022-12-18T01:14:38;102910.99999999999;;;23.68;22.18
41383;BME280;27971;53.902;9.118;2022-12-18T01:16:41;102908.0;;;23.38;22.42
41383;BME280;27971;53.902;9.118;2022-12-18T01:18:44;102904.0;;;23.52;22.35
41383;BME280;27971;53.902;9.118;2022-12-18T01:20:46;102903.0;;;23.48;22.42
41383;BME280;27971;53.902;9.118;2022-12-18T01:22:48;102903.0;;;23.02;22.72
41383;BME280;27971;53.902;9.118;2022-12-18T01:24:50;102903.0;;;23.01;22.83
41383;BME280;27971;53.902;9.118;2022-12-18T01:26:53;102908.0;;;22.95;22.83
41383;BME280;27971;53.902;9.118;2022-12-18T01:28:56;102916.00000000001;;;22.86;22.9
41383;BME280;27971;53.902;9.118;2022-12-18T01:31:09;102923.0;;;23.08;22.75
41383;BME280;27971;53.902;9.118;2022-12-18T01:33:01;102931.0;;;23.27;22.72
41383;BME280;27971;53.902;9.118;2022-12-18T01:35:04;102938.00000000001;;;22.94;22.9
41383;BME280;27971;53.902;9.118;2022-12-18T01:37:05;102946.0;;;22.95;22.87
41383;BME280;27971;53.902;9.118;2022-12-18T01:39:12;102951.0;;;23.18;22.72
41383;BME280;27971;53.902;9.118;2022-12-18T01:41:12;102957.0;;;23.02;22.85
41383;BME280;27971;53.902;9.118;2022-12-18T01:43:13;102959.99999999999;;;22.87;22.9
41383;BME280;27971;53.902;9.118;2022-12-18T01:45:26;102960.99999999999;;;22.97;22.85
41383;BME280;27971;53.902;9.118;2022-12-18T01:47:22;102958.99999999999;;;23.11;22.84
41383;BME280;27971;53.902;9.118;2022-12-18T01:49:22;102957.0;;;22.89;22.87
41383;BME280;27971;53.902;9.118;2022-12-18T01:51:26;102957.0;;;22.99;22.76
41383;BME280;27971;53.902;9.118;2022-12-18T01:53:28;102958.99999999999;;;22.79;22.9
41383;BME280;27971;53.902;9.118;2022-12-18T01:55:35;102961.99999999999;;;22.78;22.89
41383;BME280;27971;53.902;9.118;2022-12-18T01:57:34;102964.00000000001;;;22.73;22.97
41383;BME280;27971;53.902;9.118;2022-12-18T01:59:37;102966.00000000001;;;22.54;23.13
41383;BME280;27971;53.902;9.118;2022-12-18T02:01:39;102965.00000000001;;;22.94;22.96
41383;BME280;27971;53.902;9.118;2022-12-18T02:03:43;102964.00000000001;;;22.64;23.13
41383;BME280;27971;53.902;9.118;2022-12-18T02:05:49;102963.00000000001;;;22.74;23.06
41383;BME280;27971;53.902;9.118;2022-12-18T02:07:56;102963.00000000001;;;22.97;23.01
41383;BME280;27971;53.902;9.118;2022-12-18T02:09:58;102961.99999999999;;;23.04;23.0
41383;BME280;27971;53.902;9.118;2022-12-18T02:12:01;102958.99999999999;;;22.96;22.96
41383;BME280;27971;53.902;9.118;2022-12-18T02:14:06;102955.0;;;22.82;23.11
41383;BME280;27971;53.902;9.118;2022-12-18T02:16:07;102951.0;;;22.64;23.25
41383;BME280;27971;53.902;9.118;2022-12-18T02:18:07;102953.0;;;22.78;23.11
41383;BME280;27971;53.902;9.118;2022-12-18T02:20:12;102957.0;;;22.59;23.3
41383;BME280;27971;53.902;9.118;2022-12-18T02:22:18;102957.0;;;22.63;23.29
41383;BME280;27971;53.902;9.118;2022-12-18T02:24:18;102955.0;;;22.65;23.27
41383;BME280;27971;53.902;9.118;2022-12-18T02:26:21;102958.99999999999;;;22.68;23.27
41383;BME280;27971;53.902;9.118;2022-12-18T02:28:16;102958.99999999999;;;22.64;23.21
41383;BME280;27971;53.902;9.118;2022-12-18T02:30:18;102958.0;;;22.57;23.2
41383;BME280;27971;53.902;9.118;2022-12-18T02:32:25;102958.99999999999;;;22.51;23.21
41383;BME280;27971;53.902;9.118;2022-12-18T02:34:27;102958.99999999999;;;22.8;23.07
41383;BME280;27971;53.902;9.118;2022-12-18T02:36:28;102960.99999999999;;;22.67;23.12
41383;BME280;27971;53.902;9.118;2022-12-18T02:38:30;102958.99999999999;;;22.57;23.15
41383;BME280;27971;53.902;9.118;2022-12-18T02:40:32;102959.99999999999;;;22.5;23.12
41383;BME280;27971;53.902;9.118;2022-12-18T02:42:34;102960.99999999999;;;22.54;23.11
41383;BME280;27971;53.902;9.118;2022-12-18T02:44:42;102960.99999999999;;;22.52;23.11
41383;BME280;27971;53.902;9.118;2022-12-18T02:46:42;102958.0;;;22.57;23.14
41383;BME280;27971;53.902;9.118;2022-12-18T02:48:43;102958.0;;;22.48;23.15
41383;BME280;27971;53.902;9.118;2022-12-18T02:50:51;102957.0;;;22.58;23.1
41383;BME280;27971;53.902;9.118;2022-12-18T02:52:55;102960.99999999999;;;22.54;23.13
41383;BME280;27971;53.902;9.118;2022-12-18T02:55:00;102964.00000000001;;;22.55;23.19
41383;BME280;27971;53.902;9.118;2022-12-18T02:56:55;102961.99999999999;;;22.48;23.27
41383;BME280;27971;53.902;9.118;2022-12-18T02:59:00;102963.00000000001;;;22.4;23.3
41383;BME280;27971;53.902;9.118;2022-12-18T03:01:03;102964.00000000001;;;22.27;23.44
41383;BME280;27971;53.902;9.118;2022-12-18T03:03:06;102967.0;;;22.32;23.45
41383;BME280;27971;53.902;9.118;2022-12-18T03:05:11;102969.0;;;22.22;23.48
41383;BME280;27971;53.902;9.118;2022-12-18T03:07:12;102970.0;;;22.26;23.45
41383;BME280;27971;53.902;9.118;2022-12-18T03:09:16;102971.0;;;22.14;23.53
41383;BME280;27971;53.902;9.118;2022-12-18T03:11:14;102970.0;;;22.28;23.46
41383;BME280;27971;53.902;9.118;2022-12-18T03:13:20;102969.0;;;22.14;23.46
41383;BME280;27971;53.902;9.118;2022-12-18T03:15:24;102969.0;;;22.11;23.5
41383;BME280;27971;53.902;9.118;2022-12-18T03:17:26;102968.0;;;22.14;23.54
41383;BME280;27971;53.902;9.118;2022-12-18T03:19:28;102964.00000000001;;;22.26;23.4
41383;BME280;27971;53.902;9.118;2022-12-18T03:21:33;102964.00000000001;;;22.27;23.39
41383;BME280;27971;53.902;9.118;2022-12-18T03:23:35;102963.00000000001;;;22.23;23.41
41383;BME280;27971;53.902;9.118;2022-12-18T03:25:38;102964.00000000001;;;22.21;23.39
41383;BME280;27971;53.902;9.118;2022-12-18T03:27:40;102961.99999999999;;;22.22;23.38
41383;BME280;27971;53.902;9.118;2022-12-18T03:29:42;102960.99999999999;;;22.16;23.42
41383;BME280;27971;53.902;9.118;2022-12-18T03:31:48;102958.99999999999;;;21.98;23.54
41383;BME280;27971;53.902;9.118;2022-12-18T03:33:52;102958.0;;;22.12;23.46
41383;BME280;27971;53.902;9.118;2022-12-18T03:35:49;102960.99999999999;;;22.05;23.47
41383;BME280;27971;53.902;9.118;2022-12-18T03:37:52;102961.99999999999;;;22.06;23.43
41383;BME280;27971;53.902;9.118;2022-12-18T03:39:54;102961.99999999999;;;21.96;23.48
41383;BME280;27971;53.902;9.118;2022-12-18T03:42:03;102958.0;;;22.02;23.43
41383;BME280;27971;53.902;9.118;2022-12-18T03:44:04;102950.0;;;22.2;23.36
41383;BME280;27971;53.902;9.118;2022-12-18T03:46:06;102943.0;;;22.1;23.37
41383;BME280;27971;53.902;9.118;2022-12-18T03:48:10;102942.0;;;22.11;23.39
41383;BME280;27971;53.902;9.118;2022-12-18T03:50:12;102945.0;;;22.06;23.44
41383;BME280;27971;53.902;9.118;2022-12-18T03:52:17;102950.0;;;21.88;23.59
41383;BME280;27971;53.902;9.118;2022-12-18T03:54:15;102949.0;;;21.95;23.55
41383;BME280;27971;53.902;9.118;2022-12-18T03:56:18;102945.0;;;21.94;23.43
41383;BME280;27971;53.902;9.118;2022-12-18T03:58:23;102946.0;;;21.9;23.45
41383;BME280;27971;53.902;9.118;2022-12-18T04:00:23;102950.0;;;21.71;23.56
41383;BME280;27971;53.902;9.118;2022-12-18T04:02:26;102950.0;;;21.72;23.58
41383;BME280;27971;53.902;9.118;2022-12-18T04:04:30;102951.0;;;21.8;23.43
41383;BME280;27971;53.902;9.118;2022-12-18T04:06:32;102955.0;;;21.95;23.36
41383;BME280;27971;53.902;9.118;2022-12-18T04:08:35;102958.99999999999;;;21.78;23.55
41383;BME280;27971;53.902;9.118;2022-12-18T04:10:37;102963.00000000001;;;21.76;23.59
41383;BME280;27971;53.902;9.118;2022-12-18T04:12:40;102965.00000000001;;;21.77;23.47
41383;BME280;27971;53.902;9.118;2022-12-18T04:14:42;102961.99999999999;;;21.8;23.45
41383;BME280;27971;53.902;9.118;2022-12-18T04:16:45;102960.99999999999;;;21.77;23.47
41383;BME280;27971;53.902;9.118;2022-12-18T04:18:47;102958.0;;;21.69;23.55
41383;BME280;27971;53.902;9.118;2022-12-18T04:20:49;102953.0;;;21.45;23.65
41383;BME280;27971;53.902;9.118;2022-12-18T04:22:54;102951.0;;;21.53;23.54
41383;BME280;27971;53.902;9.118;2022-12-18T04:24:57;102950.0;;;18.24;23.34
41383;BME280;27971;53.902;9.118;2022-12-18T04:27:01;102943.0;;;18.31;22.3
41383;BME280;27971;53.902;9.118;2022-12-18T04:29:02;102936.99999999999;;;18.74;21.75
41383;BME280;27971;53.902;9.118;2022-12-18T04:31:06;102935.99999999999;;;18.81;21.38
41383;BME280;27971;53.902;9.118;2022-12-18T04:33:09;102938.00000000001;;;18.85;21.02
41383;BME280;27971;53.902;9.118;2022-12-18T04:35:12;102938.00000000001;;;19.1;20.84
41383;BME280;27971;53.902;9.118;2022-12-18T04:37:14;102932.0;;;19.43;20.56
41383;BME280;27971;53.902;9.118;2022-12-18T04:39:17;102931.0;;;19.23;20.57
41383;BME280;27971;53.902;9.118;2022-12-18T04:41:21;102933.99999999999;;;19.34;20.37
41383;BME280;27971;53.902;9.118;2022-12-18T04:43:23;102941.00000000001;;;19.37;20.33
41383;BME280;27971;53.902;9.118;2022-12-18T04:45:26;102948.0;;;21.73;20.35
41383;BME280;27971;53.902;9.118;2022-12-18T04:47:29;102952.0;;;22.88;21.02
41383;BME280;27971;53.902;9.118;2022-12-18T04:49:31;102954.0;;;22.61;21.67
41383;BME280;27971;53.902;9.118;2022-12-18T04:51:34;102960.99999999999;;;22.24;22.19
41383;BME280;27971;53.902;9.118;2022-12-18T04:53:36;102968.0;;;21.95;22.59
41383;BME280;27971;53.902;9.118;2022-12-18T04:55:39;102976.0;;;21.95;22.73
41383;BME280;27971;53.902;9.118;2022-12-18T04:57:42;102981.0;;;21.79;22.99
41383;BME280;27971;53.902;9.118;2022-12-18T04:59:44;102983.0;;;21.66;23.1
41383;BME280;27971;53.902;9.118;2022-12-18T05:01:47;102983.0;;;21.64;23.17
41383;BME280;27971;53.902;9.118;2022-12-18T05:03:51;102986.99999999999;;;21.57;23.25
41383;BME280;27971;53.902;9.118;2022-12-18T05:05:52;102993.0;;;21.57;23.28
41383;BME280;27971;53.902;9.118;2022-12-18T05:07:54;102997.0;;;21.51;23.3
41383;BME280;27971;53.902;9.118;2022-12-18T05:09:57;103001.0;;;21.56;23.28
41383;BME280;27971;53.902;9.118;2022-12-18T05:11:59;103000.0;;;21.56;23.34
41383;BME280;27971;53.902;9.118;2022-12-18T05:14:02;103001.0;;;21.59;23.28
41383;BME280;27971;53.902;9.118;2022-12-18T05:16:05;103001.0;;;21.58;23.3
41383;BME280;27971;53.902;9.118;2022-12-18T05:18:08;103002.0;;;21.37;23.43
41383;BME280;27971;53.902;9.118;2022-12-18T05:20:10;103005.0;;;21.25;23.47
41383;BME280;27971;53.902;9.118;2022-12-18T05:22:13;103008.0;;;21.32;23.48
41383;BME280;27971;53.902;9.118;2022-12-18T05:24:16;103008.0;;;21.16;23.35
41383;BME280;27971;53.902;9.118;2022-12-18T05:26:18;103005.0;;;21.43;23.27
41383;BME280;27971;53.902;9.118;2022-12-18T05:28:22;103005.0;;;21.42;23.34
41383;BME280;27971;53.902;9.118;2022-12-18T05:30:23;103008.0;;;21.32;23.4
41383;BME280;27971;53.902;9.118;2022-12-18T05:32:26;103013.00000000001;;;21.21;23.58
41383;BME280;27971;53.902;9.118;2022-12-18T05:34:28;103008.0;;;21.15;23.65
41383;BME280;27971;53.902;9.118;2022-12-18T05:36:31;103001.0;;;21.21;23.62
41383;BME280;27971;53.902;9.118;2022-12-18T05:38:35;102999.0;;;21.21;23.64
41383;BME280;27971;53.902;9.118;2022-12-18T05:40:36;102999.0;;;21.01;23.8
41383;BME280;27971;53.902;9.118;2022-12-18T05:42:39;102998.0;;;21.13;23.68
41383;BME280;27971;53.902;9.118;2022-12-18T05:44:41;102996.0;;;21.21;23.65
41383;BME280;27971;53.902;9.118;2022-12-18T05:46:45;102996.0;;;21.17;23.66
41383;BME280;27971;53.902;9.118;2022-12-18T05:48:47;103001.0;;;21.02;23.78
41383;BME280;27971;53.902;9.118;2022-12-18T05:50:50;103008.99999999999;;;21.05;23.69
41383;BME280;27971;53.902;9.118;2022-12-18T05:52:53;103013.00000000001;;;20.96;23.74
41383;BME280;27971;53.902;9.118;2022-12-18T05:54:55;103010.99999999999;;;21.15;23.67
41383;BME280;27971;53.902;9.118;2022-12-18T05:56:58;103008.0;;;20.99;23.72
41383;BME280;27971;53.902;9.118;2022-12-18T05:59:01;103009.99999999999;;;20.69;23.89
41383;BME280;27971;53.902;9.118;2022-12-18T06:01:08;103011.99999999999;;;20.99;23.76
41383;BME280;27971;53.902;9.118;2022-12-18T06:03:06;103013.00000000001;;;21.45;23.45
41383;BME280;27971;53.902;9.118;2022-12-18T06:05:09;103013.00000000001;;;20.94;23.73
41383;BME280;27971;53.902;9.118;2022-12-18T06:07:12;103010.99999999999;;;21.12;23.55
41383;BME280;27971;53.902;9.118;2022-12-18T06:09:14;103009.99999999999;;;21.25;23.41
41383;BME280;27971;53.902;9.118;2022-12-18T06:11:18;103011.99999999999;;;21.63;23.1
41383;BME280;27971;53.902;9.118;2022-12-18T06:13:20;103013.00000000001;;;21.86;22.88
41383;BME280;27971;53.902;9.118;2022-12-18T06:15:23;103019.0;;;22.04;22.74
41383;BME280;27971;53.902;9.118;2022-12-18T06:17:28;103022.0;;;21.98;22.64
41383;BME280;27971;53.902;9.118;2022-12-18T06:19:28;103025.0;;;22.12;22.51
41383;BME280;27971;53.902;9.118;2022-12-18T06:21:32;103023.0;;;22.32;22.3
41383;BME280;27971;53.902;9.118;2022-12-18T06:23:33;103023.0;;;22.2;22.29
41383;BME280;27971;53.902;9.118;2022-12-18T06:25:38;103022.0;;;22.57;22.01
41383;BME280;27971;53.902;9.118;2022-12-18T06:27:39;103018.0;;;22.91;21.73
41383;BME280;27971;53.902;9.118;2022-12-18T06:29:41;103014.00000000001;;;22.95;21.63
41383;BME280;27971;53.902;9.118;2022-12-18T06:31:44;103015.00000000001;;;22.66;21.71
41383;BME280;27971;53.902;9.118;2022-12-18T06:33:46;103017.0;;;22.39;21.94
41383;BME280;27971;53.902;9.118;2022-12-18T06:35:49;103019.0;;;21.93;22.18
41383;BME280;27971;53.902;9.118;2022-12-18T06:37:51;103021.0;;;21.99;22.16
41383;BME280;27971;53.902;9.118;2022-12-18T06:39:54;103023.0;;;21.93;22.15
41383;BME280;27971;53.902;9.118;2022-12-18T06:41:56;103022.0;;;22.05;21.96
41383;BME280;27971;53.902;9.118;2022-12-18T06:43:58;103024.0;;;21.79;22.1
41383;BME280;27971;53.902;9.118;2022-12-18T06:46:01;103029.0;;;21.47;22.33
41383;BME280;27971;53.902;9.118;2022-12-18T06:48:03;103032.0;;;21.71;22.15
41383;BME280;27971;53.902;9.118;2022-12-18T06:50:06;103033.99999999999;;;21.79;22.09
41383;BME280;27971;53.902;9.118;2022-12-18T06:52:08;103036.99999999999;;;21.75;22.04
41383;BME280;27971;53.902;9.118;2022-12-18T06:54:10;103039.00000000001;;;21.87;21.99
41383;BME280;27971;53.902;9.118;2022-12-18T06:56:13;103042.0;;;21.51;22.25
41383;BME280;27971;53.902;9.118;2022-12-18T06:58:15;103043.0;;;21.79;21.98
41383;BME280;27971;53.902;9.118;2022-12-18T07:00:18;103040.00000000001;;;21.82;21.94
41383;BME280;27971;53.902;9.118;2022-12-18T07:02:21;103038.00000000001;;;22.16;21.74
41383;BME280;27971;53.902;9.118;2022-12-18T07:04:27;103035.99999999999;;;22.49;21.5
41383;BME280;27971;53.902;9.118;2022-12-18T07:06:26;103038.00000000001;;;22.19;21.73
41383;BME280;27971;53.902;9.118;2022-12-18T07:08:29;103040.00000000001;;;22.98;21.27
41383;BME280;27971;53.902;9.118;2022-12-18T07:10:32;103049.0;;;22.52;21.57
41383;BME280;27971;53.902;9.118;2022-12-18T07:12:34;103052.0;;;22.77;21.43
41383;BME280;27971;53.902;9.118;2022-12-18T07:14:36;103053.0;;;23.16;21.21
41383;BME280;27971;53.902;9.118;2022-12-18T07:16:39;103054.0;;;23.38;20.9
41383;BME280;27971;53.902;9.118;2022-12-18T07:18:42;103060.99999999999;;;23.47;20.88
41383;BME280;27971;53.902;9.118;2022-12-18T07:20:44;103070.0;;;23.32;20.96
41383;BME280;27971;53.902;9.118;2022-12-18T07:22:46;103074.0;;;23.29;21.01
41383;BME280;27971;53.902;9.118;2022-12-18T07:24:49;103074.0;;;23.41;20.93
41383;BME280;27971;53.902;9.118;2022-12-18T07:26:51;103075.0;;;22.8;21.37
41383;BME280;27971;53.902;9.118;2022-12-18T07:28:55;103073.0;;;22.97;21.3
41383;BME280;27971;53.902;9.118;2022-12-18T07:30:56;103074.0;;;22.87;21.37
41383;BME280;27971;53.902;9.118;2022-12-18T07:32:59;103073.0;;;22.89;21.37
41383;BME280;27971;53.902;9.118;2022-12-18T07:35:02;103072.0;;;23.1;21.2
41383;BME280;27971;53.902;9.118;2022-12-18T07:37:05;103072.0;;;23.09;21.19
41383;BME280;27971;53.902;9.118;2022-12-18T07:39:08;103073.0;;;23.21;21.13
41383;BME280;27971;53.902;9.118;2022-12-18T07:41:12;103077.0;;;22.66;21.48
41383;BME280;27971;53.902;9.118;2022-12-18T07:43:13;103078.0;;;23.04;21.27
41383;BME280;27971;53.902;9.118;2022-12-18T07:45:16;103077.0;;;23.05;21.22
41383;BME280;27971;53.902;9.118;2022-12-18T07:47:18;103078.0;;;22.84;21.34
41383;BME280;27971;53.902;9.118;2022-12-18T07:49:21;103077.0;;;22.72;21.48
41383;BME280;27971;53.902;9.118;2022-12-18T07:51:23;103071.0;;;23.2;21.22
41383;BME280;27971;53.902;9.118;2022-12-18T07:53:27;103065.00000000001;;;22.88;21.39
41383;BME280;27971;53.902;9.118;2022-12-18T07:55:29;103061.99999999999;;;22.99;21.37
41383;BME280;27971;53.902;9.118;2022-12-18T07:57:31;103059.99999999999;;;22.72;21.57
41383;BME280;27971;53.902;9.118;2022-12-18T07:59:34;103058.0;;;23.56;21.0
41383;BME280;27971;53.902;9.118;2022-12-18T08:01:36;103058.99999999999;;;23.19;21.15
41383;BME280;27971;53.902;9.118;2022-12-18T08:03:40;103058.99999999999;;;23.54;20.93
41383;BME280;27971;53.902;9.118;2022-12-18T08:05:41;103063.00000000001;;;23.42;21.0
41383;BME280;27971;53.902;9.118;2022-12-18T08:07:44;103061.99999999999;;;23.49;20.9
41383;BME280;27971;53.902;9.118;2022-12-18T08:09:46;103063.00000000001;;;23.28;21.05
41383;BME280;27971;53.902;9.118;2022-12-18T08:11:48;103061.99999999999;;;24.04;20.64
41383;BME280;27971;53.902;9.118;2022-12-18T08:13:51;103061.99999999999;;;23.31;21.07
41383;BME280;27971;53.902;9.118;2022-12-18T08:15:57;103060.99999999999;;;23.01;21.25
41383;BME280;27971;53.902;9.118;2022-12-18T08:17:56;103059.99999999999;;;23.06;21.2
41383;BME280;27971;53.902;9.118;2022-12-18T08:19:59;103058.0;;;23.62;20.87
41383;BME280;27971;53.902;9.118;2022-12-18T08:22:01;103059.99999999999;;;23.89;20.68
41383;BME280;27971;53.902;9.118;2022-12-18T08:24:04;103064.00000000001;;;23.25;20.99
41383;BME280;27971;53.902;9.118;2022-12-18T08:26:07;103067.0;;;23.39;21.0
41383;BME280;27971;53.902;9.118;2022-12-18T08:28:09;103070.0;;;23.15;21.19
41383;BME280;27971;53.902;9.118;2022-12-18T08:30:13;103073.0;;;22.03;21.99
41383;BME280;27971;53.902;9.118;2022-12-18T08:32:15;103070.0;;;22.44;21.83
41383;BME280;27971;53.902;9.118;2022-12-18T08:34:18;103071.0;;;22.19;22.04
41383;BME280;27971;53.902;9.118;2022-12-18T08:36:20;103071.0;;;22.76;21.76
41383;BME280;27971;53.902;9.118;2022-12-18T08:38:23;103077.0;;;22.74;21.78
41383;BME280;27971;53.902;9.118;2022-12-18T08:40:26;103081.0;;;23.84;21.08
41383;BME280;27971;53.902;9.118;2022-12-18T08:42:30;103089.00000000001;;;22.69;20.42
41383;BME280;27971;53.902;9.118;2022-12-18T08:44:32;103091.00000000001;;;21.32;18.3
41383;BME280;27971;53.902;9.118;2022-12-18T08:46:36;103086.99999999999;;;21.35;14.63
41383;BME280;27971;53.902;9.118;2022-12-18T08:48:38;103089.00000000001;;;20.31;15.32
41383;BME280;27971;53.902;9.118;2022-12-18T08:50:41;103089.00000000001;;;21.66;15.15
41383;BME280;27971;53.902;9.118;2022-12-18T08:52:43;103088.00000000001;;;22.81;15.27
41383;BME280;27971;53.902;9.118;2022-12-18T08:54:46;103085.99999999999;;;23.0;15.14
41383;BME280;27971;53.902;9.118;2022-12-18T08:56:48;103083.99999999999;;;22.69;15.64
41383;BME280;27971;53.902;9.118;2022-12-18T08:58:52;103081.0;;;22.59;15.95
41383;BME280;27971;53.902;9.118;2022-12-18T09:00:58;103078.0;;;23.05;15.96
41383;BME280;27971;53.902;9.118;2022-12-18T09:02:57;103073.0;;;22.8;16.36
41383;BME280;27971;53.902;9.118;2022-12-18T09:05:00;103070.0;;;23.58;16.16
41383;BME280;27971;53.902;9.118;2022-12-18T09:07:02;103070.0;;;23.62;16.5
41383;BME280;27971;53.902;9.118;2022-12-18T09:09:05;103072.0;;;23.6;16.88
41383;BME280;27971;53.902;9.118;2022-12-18T09:11:14;103073.0;;;24.03;17.18
41383;BME280;27971;53.902;9.118;2022-12-18T09:13:10;103074.0;;;24.04;17.67
41383;BME280;27971;53.902;9.118;2022-12-18T09:15:13;103076.0;;;24.02;17.74
41383;BME280;27971;53.902;9.118;2022-12-18T09:17:15;103076.0;;;24.44;17.59
41383;BME280;27971;53.902;9.118;2022-12-18T09:19:18;103077.0;;;24.62;17.56
41383;BME280;27971;53.902;9.118;2022-12-18T09:21:21;103078.0;;;24.44;17.64
41383;BME280;27971;53.902;9.118;2022-12-18T09:23:23;103078.0;;;24.67;17.59
41383;BME280;27971;53.902;9.118;2022-12-18T09:25:26;103082.0;;;24.55;17.79
41383;BME280;27971;53.902;9.118;2022-12-18T09:27:28;103083.99999999999;;;24.33;17.95
41383;BME280;27971;53.902;9.118;2022-12-18T09:29:31;103083.0;;;24.0;18.29
41383;BME280;27971;53.902;9.118;2022-12-18T09:31:35;103082.0;;;23.42;18.8
41383;BME280;27971;53.902;9.118;2022-12-18T09:33:36;103079.0;;;23.78;18.68
41383;BME280;27971;53.902;9.118;2022-12-18T09:35:39;103081.0;;;23.35;19.0
41383;BME280;27971;53.902;9.118;2022-12-18T09:37:42;103078.0;;;24.21;18.58
41383;BME280;27971;53.902;9.118;2022-12-18T09:39:45;103078.0;;;24.84;18.32
41383;BME280;27971;53.902;9.118;2022-12-18T09:41:51;103077.0;;;24.58;18.43
41383;BME280;27971;53.902;9.118;2022-12-18T09:43:52;103072.0;;;24.85;18.43
41383;BME280;27971;53.902;9.118;2022-12-18T09:45:56;103074.0;;;24.99;18.42
41383;BME280;27971;53.902;9.118;2022-12-18T09:47:55;103080.0;;;24.88;18.51
41383;BME280;27971;53.902;9.118;2022-12-18T09:50:01;103080.0;;;24.51;18.62
41383;BME280;27971;53.902;9.118;2022-12-18T09:52:04;103080.0;;;24.27;18.78
41383;BME280;27971;53.902;9.118;2022-12-18T09:54:06;103083.0;;;24.65;18.63
41383;BME280;27971;53.902;9.118;2022-12-18T09:56:17;103091.00000000001;;;24.31;18.83
41383;BME280;27971;53.902;9.118;2022-12-18T09:58:17;103099.0;;;24.49;18.88
41383;BME280;27971;53.902;9.118;2022-12-18T10:00:17;103105.0;;;24.25;19.12
41383;BME280;27971;53.902;9.118;2022-12-18T10:02:18;103109.99999999999;;;23.88;19.29
41383;BME280;27971;53.902;9.118;2022-12-18T10:04:19;103113.00000000001;;;24.09;19.26
41383;BME280;27971;53.902;9.118;2022-12-18T10:06:25;103110.99999999999;;;23.91;19.25
41383;BME280;27971;53.902;9.118;2022-12-18T10:08:29;103114.00000000001;;;24.56;18.83
41383;BME280;27971;53.902;9.118;2022-12-18T10:10:34;103113.00000000001;;;24.28;19.03
41383;BME280;27971;53.902;9.118;2022-12-18T10:12:34;103110.99999999999;;;24.14;19.07
41383;BME280;27971;53.902;9.118;2022-12-18T10:14:36;103109.99999999999;;;23.96;19.14
41383;BME280;27971;53.902;9.118;2022-12-18T10:16:40;103105.0;;;24.03;19.12
41383;BME280;27971;53.902;9.118;2022-12-18T10:19:00;103098.0;;;24.04;19.05
41383;BME280;27971;53.902;9.118;2022-12-18T10:20:43;103090.00000000001;;;24.66;18.93
41383;BME280;27971;53.902;9.118;2022-12-18T10:22:52;103089.00000000001;;;24.04;19.24